Latest Coastal Weather Observations for Avalon

IDV60701

Issued at 5:51 am EDT Monday 27 March 2017 (issued every 10 minutes, with the page automatically refreshed every 10 minutes)

About coastal observations | Map of coastal stations | Coastal observations for VIC | Marine services | Other Formats
Station Details ID: 087113 Name: AVALON AIRPORT Lat: -38.03 Lon: 144.48 Height: 10.6 m
Data from the previous 72 hours. | See also: Recent months at Avalon
Date/Time
EDT
Temp
°C
Wind Pressure Rain since
9am
mm
Weather Cloud Vis
km
Sea
Height
m
Swell
Dir  Spd
kts
Gust
kts
hPa Trend Height
m
Period
s
Dir
27/05:30am 23.6 NNE 8 12 1004.9 - 0.0 - - 10 - - - -
27/05:00am 19.9 WNW 3 5 1005.8 - 0.0 - - 10 - - - -
27/04:30am 20.5 NE 5 6 1005.8 - 0.0 - - 10 - - - -
27/04:00am 19.7 NE 6 8 1006.3 - 0.0 - Partly cloudy 10 - - - -
27/03:30am 19.5 ENE 8 10 1006.1 - 0.0 - - 10 - - - -
27/03:00am 18.9 NE 8 10 1006.8 - 0.0 - Cloudy 10 - - - -
27/02:30am 18.2 NE 5 8 1007.6 - 0.0 - - 9 - - - -
27/02:00am 18.2 ENE 5 6 1008.1 - 0.0 - - 10 - - - -
27/01:30am 18.2 NNE 5 6 1008.6 - 0.0 - - 10 - - - -
27/01:00am 18.0 NNE 6 7 1009.2 - 0.0 - Partly cloudy 10 - - - -
27/12:30am 17.7 NE 5 7 1009.7 - 0.0 - - 10 - - - -
27/12:00am 18.0 NE 5 7 1010.2 - 0.0 - Partly cloudy 10 - - - -
 
Date/Time
EDT
Temp
°C
Wind Pressure Rain since
9am
mm
Weather Cloud Vis
km
Sea
Height
m
Swell
Dir  Spd
kts
Gust
kts
hPa Trend Height
m
Period
s
Dir
26/11:30pm 18.0 N 4 5 1010.9 - 0.0 - - - - - - -
26/11:00pm 17.8 N 5 6 1011.3 - 0.0 - - - - - - -
26/10:30pm 18.2 NNW 5 6 1011.7 - 0.0 - - 9 - - - -
26/10:00pm 18.6 N 4 4 1011.7 - 0.0 - - 10 - - - -
26/09:30pm 18.6 N 4 5 1012.0 - 0.0 - - 10 - - - -
26/09:00pm 18.7 ENE 4 5 1011.9 - 0.0 - - 10 - - - -
26/08:30pm 18.5 SSE 5 5 1011.8 - 0.0 - - 10 - - - -
26/08:00pm 19.4 SSE 4 5 1012.1 - 0.0 - - 10 - - - -
26/07:30pm 20.4 SSE 6 8 1011.7 - 0.0 - - 10 - - - -
26/07:00pm 21.9 ESE 4 5 1011.7 - 0.0 - - 10 - - - -
26/06:30pm 22.7 ESE 6 7 1011.8 - 0.0 - - 10 - - - -
26/06:00pm 23.2 ESE 7 9 1011.8 - 0.0 - - 10 - - - -
26/05:30pm 23.9 SE 7 10 1011.6 - 0.0 - - 10 - - - -
26/05:00pm 23.7 SE 6 9 1011.9 - 0.0 - - 10 - - - -
26/04:30pm 23.5 ESE 6 8 1011.9 - 0.0 - - 10 - - - -
26/04:00pm 23.6 ESE 7 10 1012.1 - 0.0 - - 10 - - - -
26/03:30pm 23.5 SE 7 10 1012.2 - 0.0 - - 10 - - - -
26/03:00pm 23.4 SE 5 10 1012.7 - 0.0 - Mostly cloudy 10 - - - -
26/02:30pm 22.5 SE 6 10 1013.0 - 0.0 - Partly cloudy 10 - - - -
26/02:00pm 21.7 SE 7 9 1013.6 - 0.0 - Cloudy 10 - - - -
26/01:30pm 21.4 ESE 8 11 1014.1 - 0.0 - Cloudy 10 - - - -
26/01:00pm 21.4 ENE 6 9 1014.5 - 0.0 - Cloudy 10 - - - -
26/12:30pm 21.1 ESE 6 8 1014.8 - 0.0 - Cloudy 10 - - - -
26/12:00pm 20.5 ESE 5 8 1015.2 - 0.0 - Cloudy 10 - - - -
26/11:30am 20.2 ESE 5 8 1015.6 - 0.0 - Cloudy 10 - - - -
26/11:00am 20.1 SE 5 7 1015.8 - 0.0 - Cloudy 10 - - - -
26/10:30am 19.7 SSE 6 7 1016.0 - 0.0 - Cloudy 10 - - - -
26/10:00am 19.5 SSE 6 8 1015.9 - 0.0 - Cloudy 10 - - - -
26/09:30am 19.4 SSE 6 8 1015.5 - 0.0 - Cloudy 10 - - - -
26/09:06am 19.3 SE 5 7 1015.3 - 0.0 - Cloudy 10 - - - -
26/09:00am 19.3 ESE 6 7 1015.2 - 0.0 - Cloudy 10 - - - -
26/08:30am 19.0 SSE 3 5 1015.0 - 0.0 - Cloudy 10 - - - -
26/08:00am 18.8 CALM 0 5 1014.8 - 0.0 - Cloudy 10 - - - -
26/07:30am 18.6 CALM 0 0 1014.7 - 0.0 - Cloudy 10 - - - -
26/07:00am 18.6 CALM 0 0 1014.4 - 0.0 - Cloudy 10 - - - -
26/06:30am 18.5 CALM 0 0 1014.1 - 0.0 - Cloudy 10 - - - -
26/06:00am 18.5 CALM 0 0 1014.1 - 0.0 - Cloudy 10 - - - -
26/05:30am 18.5 SW 2 4 1013.7 - 0.0 - Cloudy 10 - - - -
26/05:00am 18.6 WSW 3 4 1013.9 - 0.0 - Cloudy 10 - - - -
26/04:30am 18.5 CALM 0 0 1013.7 - 0.0 - Cloudy 10 - - - -
26/04:00am 18.7 S 4 5 1013.9 - 0.0 - Cloudy 10 - - - -
26/03:30am 18.7 CALM 0 0 1014.1 - 0.0 - Partly cloudy 10 - - - -
26/03:00am 18.7 CALM 0 0 1014.2 - 0.0 - Cloudy 10 - - - -
26/02:54am 18.6 CALM 0 0 1014.2 - 0.0 - Partly cloudy 10 - - - -
26/02:30am 18.6 WSW 3 5 1014.5 - 0.0 - Partly cloudy 10 - - - -
26/02:28am 18.6 WSW 4 5 1014.5 - 0.0 - Partly cloudy 10 - - - -
26/02:00am 18.5 SW 3 4 1014.6 - 0.0 - Cloudy 10 - - - -
26/01:30am 18.7 WSW 4 5 1014.7 - 0.0 - Cloudy 10 - - - -
26/01:00am 18.7 SSW 5 6 1014.6 - 0.0 - Cloudy 10 - - - -
26/12:30am 18.8 SSW 7 10 1014.5 - 0.0 - Cloudy 10 - - - -
26/12:00am 18.9 SSW 5 8 1014.8 - 0.0 - Cloudy 10 - - - -
 
Date/Time
EDT
Temp
°C
Wind Pressure Rain since
9am
mm
Weather Cloud Vis
km
Sea
Height
m
Swell
Dir  Spd
kts
Gust
kts
hPa Trend Height
m
Period
s
Dir
25/11:58pm 18.9 SSW 5 7 1014.8 - 0.0 - Partly cloudy 10 - - - -
25/11:52pm 19.0 SW 6 9 1014.8 - 0.0 - Partly cloudy - - - - -
25/11:30pm 19.0 SSW 8 10 1014.6 - 0.0 - Cloudy 10 - - - -
25/11:00pm 19.3 SSW 9 10 1014.8 - 0.0 - Partly cloudy 10 - - - -
25/10:30pm 19.4 SSW 8 11 1014.6 - 0.0 - Cloudy 10 - - - -
25/10:01pm 19.5 SSW 10 14 1014.2 - 0.0 - Partly cloudy - - - - -
25/10:00pm 19.5 SSW 10 14 1014.2 - 0.0 - Partly cloudy - - - - -
25/09:30pm 19.6 SSW 12 16 1013.5 - 0.0 - Partly cloudy - - - - -
25/09:00pm 20.1 SSW 15 21 1013.0 - 0.0 - Partly cloudy 10 - - - -
25/08:30pm 20.4 S 17 21 1012.3 - 0.0 - Cloudy 10 - - - -
25/08:14pm 21.9 SSW 15 24 1012.1 - 0.0 - Cloudy 10 - - - -
25/08:00pm 22.4 S 10 13 1011.9 - 0.0 - Partly cloudy 10 - - - -
25/07:30pm 22.7 S 13 16 1011.4 - 0.0 - Partly cloudy 10 - - - -
25/07:00pm 23.5 S 13 17 1011.0 - 0.0 - Partly cloudy 10 - - - -
25/06:30pm 24.8 S 13 15 1010.6 - 0.0 - Partly cloudy 10 - - - -
25/06:00pm 26.3 SSE 8 10 1010.5 - 0.0 - Cloudy 10 - - - -
25/05:30pm 25.6 SE 7 8 1010.1 - 0.0 - Partly cloudy 10 - - - -
25/05:00pm 27.6 ESE 9 11 1009.8 - 0.0 - Partly cloudy 10 - - - -
25/04:30pm 27.6 E 6 7 1009.9 - 0.0 - Partly cloudy 10 - - - -
25/04:00pm 27.7 E 9 11 1009.8 - 0.0 - Partly cloudy 10 - - - -
25/03:30pm 28.3 E 9 11 1009.7 - 0.0 - Partly cloudy 10 - - - -
25/03:00pm 28.7 ESE 9 11 1009.9 - 0.0 - Cloudy 10 - - - -
25/02:30pm 28.2 ESE 9 11 1010.3 - 0.0 - Partly cloudy 10 - - - -
25/02:00pm 28.3 SE 9 13 1010.5 - 0.0 - Partly cloudy 10 - - - -
25/01:30pm 27.4 ESE 7 9 1010.8 - 0.0 - Partly cloudy 10 - - - -
25/01:00pm 26.3 SE 8 11 1011.2 - 0.0 - Partly cloudy 10 - - - -
25/12:30pm 27.5 SE 9 11 1011.4 - 0.0 - Partly cloudy 10 - - - -
25/12:00pm 27.3 ESE 6 10 1011.7 - 0.0 - - 10 - - - -
25/11:30am 26.6 S 2 4 1012.2 - 0.0 - Partly cloudy 10 - - - -
25/11:00am 26.5 SSE 2 6 1012.4 - 0.0 - - 10 - - - -
25/10:30am 25.1 N 4 7 1012.3 - 0.0 - Partly cloudy 10 - - - -
25/10:00am 23.1 NE 4 6 1012.5 - 0.0 - Partly cloudy 10 - - - -
25/09:30am 22.0 NE 6 7 1012.3 - 0.0 - Cloudy 10 - - - -
25/09:00am 20.1 ENE 6 7 1012.1 - 0.0 - Cloudy 10 - - - -
25/08:30am 18.9 ENE 6 7 1012.0 - 0.0 - Partly cloudy 10 - - - -
25/08:00am 18.1 ENE 5 6 1011.8 - 0.0 - Partly cloudy 10 - - - -
25/07:30am 18.1 ENE 7 8 1011.5 - 0.0 - Partly cloudy 10 - - - -
25/07:00am 17.9 ENE 7 8 1011.6 - 0.0 - Cloudy 10 - - - -
25/06:30am 17.9 ENE 8 10 1011.5 - 0.0 - Cloudy 10 - - - -
25/06:00am 17.9 ENE 7 8 1011.3 - 0.0 - Cloudy 10 - - - -
25/05:30am 17.7 ENE 5 6 1011.6 - 0.0 - Partly cloudy 10 - - - -
25/05:00am 17.7 NNE 4 6 1011.8 - 0.0 - Partly cloudy 10 - - - -
25/04:30am 17.6 NE 5 7 1011.8 - 0.0 - Partly cloudy 10 - - - -
25/04:00am 17.5 NNE 4 6 1012.0 - 0.0 - Cloudy 10 - - - -
25/03:30am 17.4 N 5 8 1012.2 - 0.0 - Partly cloudy - - - - -
25/03:00am 17.7 NNE 7 9 1012.4 - 0.0 - Cloudy 10 - - - -
25/02:30am 17.2 NNE 3 6 1013.0 - 0.0 - - 10 - - - -
25/02:00am 17.1 CALM 0 0 1013.9 - 0.0 - - 10 - - - -
25/01:30am 17.2 CALM 0 3 1014.2 - 0.0 - - 10 - - - -
25/01:00am 17.0 SW 2 5 1014.9 - 0.0 - - 10 - - - -
25/12:30am 17.1 SW 3 5 1014.8 - 0.0 - - - - - - -
25/12:00am 17.2 CALM 0 0 1014.8 - 0.0 - Mostly cloudy - - - - -
 
Date/Time
EDT
Temp
°C
Wind Pressure Rain since
9am
mm
Weather Cloud Vis
km
Sea
Height
m
Swell
Dir  Spd
kts
Gust
kts
hPa Trend Height
m
Period
s
Dir
24/11:30pm 17.6 NE 3 4 1014.9 - 0.0 - - 10 - - - -
24/11:00pm 18.0 NNE 5 5 1015.1 - 0.0 - - 10 - - - -
24/10:30pm 18.7 ENE 5 6 1015.4 - 0.0 - - 10 - - - -
24/10:00pm 18.9 E 6 8 1015.4 - 0.0 - - 10 - - - -
24/09:30pm 18.9 E 6 8 1015.5 - 0.0 - - 10 - - - -
24/09:00pm 19.1 ESE 7 8 1015.7 - 0.0 - Partly cloudy 10 - - - -
24/08:30pm 19.5 S 6 10 1016.0 - 0.0 - - 10 - - - -
24/08:00pm 19.1 SSW 6 7 1015.4 - 0.0 - - 10 - - - -
24/07:30pm 19.7 SSW 6 6 1015.5 - 0.0 - - 10 - - - -
24/07:00pm 20.9 SSW 4 5 1015.6 - 0.0 - - 10 - - - -
24/06:30pm 21.6 SE 5 6 1015.2 - 0.0 - - 10 - - - -
24/06:00pm 21.8 SE 7 9 1015.2 - 0.0 - Mostly cloudy 10 - - - -
24/05:30pm 21.9 SE 8 10 1015.5 - 0.0 - - 10 - - - -
24/05:00pm 22.3 SE 8 10 1015.2 - 0.0 - - 10 - - - -
24/04:30pm 23.0 ESE 6 7 1015.5 - 0.0 - - 10 - - - -
24/04:00pm 21.9 ESE 7 8 1015.8 - 0.0 - - 10 - - - -
24/03:30pm 22.5 E 8 11 1015.8 - 0.0 - - 10 - - - -
24/03:00pm 22.8 ESE 11 14 1016.2 - 0.0 - Mostly clear 10 - - - -
24/02:30pm 22.2 E 7 11 1017.0 - 0.0 - - 10 - - - -
24/02:00pm 20.4 SE 6 8 1017.8 - 0.0 - - 10 - - - -
24/01:30pm 20.4 ESE 8 13 1018.1 - 0.0 - - 10 - - - -
24/01:00pm 20.9 ESE 7 12 1018.7 - 0.0 - - 10 - - - -
24/12:30pm 20.5 E 9 13 1018.8 - 0.0 - - 10 - - - -
24/12:00pm 20.5 ESE 9 13 1019.3 - 0.0 - Mostly clear 10 - - - -
24/11:30am 19.8 ESE 8 11 1019.6 - 0.0 - - 10 - - - -
24/11:00am 19.5 SE 7 10 1019.7 - 0.0 - - 10 - - - -
24/10:30am 19.5 ESE 7 10 1019.6 - 0.0 - - 10 - - - -
24/10:00am 19.3 ESE 7 9 1019.8 - 0.0 - - 10 - - - -
24/09:30am 18.2 E 5 6 1019.9 - 0.0 - - 10 - - - -
24/09:18am 17.7 E 6 9 1019.7 - 0.0 - Partly cloudy 10 - - - -
24/09:00am 18.0 E 4 7 1019.6 - 0.0 - Partly cloudy 10 - - - -
24/08:30am 16.1 NE 2 4 1019.6 - 0.0 - Partly cloudy 10 - - - -
24/08:00am 16.3 ENE 5 6 1019.2 - 0.0 - Partly cloudy 10 - - - -
24/07:30am 16.6 E 6 8 1019.1 - 0.0 - Cloudy 10 - - - -
24/07:00am 17.1 E 12 15 1018.6 - 0.0 - Partly cloudy 10 - - - -
24/06:30am 17.4 E 12 16 1018.6 - 0.0 - Cloudy 10 - - - -
24/06:00am 17.5 E 13 16 1018.8 - 0.0 - Mostly cloudy 10 - - - -

Other Formats:

Comma delimited format used in spreadsheet applications
http://www.bom.gov.au/fwo/IDV60701/IDV60701.94854.axf

JavaScript Object Notation format (JSON) in row-major order
http://www.bom.gov.au/fwo/IDV60701/IDV60701.94854.json